Time;durP1;ratioP1;P1;durP2;ratioP2;P2;SDS_P1;SDS_P2;PMS_P1;PMS_P2;Temp;Humidity;BMP_temperature;BMP_pressure;BME280_temperature;BME280_humidity;BME280_pressure;Samples;Min_cycle;Max_cycle;Signal;HPM_P1;HPM_P2
2022/11/17 04:47:52;;;;;;;28.20;12.65;;;;;;;6.60;100.00;98887.66;5220447;34;19993;-85
2022/11/17 04:50:55;;;;;;;29.00;12.57;;;;;;;6.64;100.00;98886.28;5221393;34;33640;-85
2022/11/17 04:53:59;;;;;;;29.25;13.13;;;;;;;6.70;100.00;98887.34;5211309;34;33301;-85
2022/11/17 04:57:02;;;;;;;30.42;14.63;;;;;;;6.70;100.00;98900.72;5222517;34;35065;-85
2022/11/17 05:00:05;;;;;;;30.45;14.45;;;;;;;6.70;100.00;98916.78;5216998;34;33766;-84
2022/11/17 05:03:08;;;;;;;29.17;13.77;;;;;;;6.78;100.00;98914.00;5223921;34;34054;-85
2022/11/17 05:06:14;;;;;;;28.15;14.87;;;;;;;6.84;100.00;98909.72;5227393;34;34177;-85
2022/11/17 05:09:17;;;;;;;31.55;14.73;;;;;;;6.89;100.00;98905.47;5230069;34;34368;-85
2022/11/17 05:19:04;;;;;;;26.12;13.90;;;;;;;6.96;100.00;98921.59;5223927;34;32248;-85
2022/11/17 05:25:30;;;;;;;26.92;13.57;;;;;;;7.02;100.00;98913.66;5215965;34;32283;-86
2022/11/17 05:28:32;;;;;;;24.02;12.88;;;;;;;7.01;100.00;98917.31;5230337;34;34979;-85
2022/11/17 05:31:35;;;;;;;27.65;13.45;;;;;;;6.99;100.00;98911.34;5230495;34;33922;-85
2022/11/17 05:34:38;;;;;;;27.23;14.20;;;;;;;7.01;100.00;98914.62;5231144;34;34891;-85
2022/11/17 05:37:41;;;;;;;27.58;12.88;;;;;;;7.00;100.00;98914.84;5218345;34;32690;-85
2022/11/17 05:40:44;;;;;;;29.95;14.73;;;;;;;7.08;100.00;98919.22;5209442;34;32990;-85
2022/11/17 05:43:47;;;;;;;28.17;13.57;;;;;;;7.04;100.00;98911.59;5219841;34;33915;-85
2022/11/17 05:46:49;;;;;;;24.45;12.40;;;;;;;7.05;100.00;98907.09;5220670;34;32606;-90
2022/11/17 05:49:52;;;;;;;28.40;13.82;;;;;;;7.02;100.00;98913.66;5239236;34;34226;-90
2022/11/17 05:52:55;;;;;;;24.87;12.23;;;;;;;7.01;100.00;98914.62;5241465;34;33981;-90
2022/11/17 05:56:28;;;;;;;26.75;13.45;;;;;;;7.00;100.00;98920.19;5241424;34;34612;-89
2022/11/17 05:59:55;;;;;;;26.98;13.15;;;;;;;7.03;100.00;98923.31;5238236;34;34185;-86
2022/11/17 06:03:03;;;;;;;24.70;12.88;;;;;;;7.07;100.00;98934.47;5237670;34;33872;-85
2022/11/17 06:06:07;;;;;;;28.33;13.85;;;;;;;7.04;100.00;98941.03;5238214;34;34071;-86
2022/11/17 06:09:10;;;;;;;27.62;13.82;;;;;;;7.10;100.00;98941.28;5224798;34;32950;-86
2022/11/17 06:12:14;;;;;;;28.20;13.60;;;;;;;7.12;100.00;98948.09;5235555;34;34545;-85
2022/11/17 06:15:17;;;;;;;27.77;14.27;;;;;;;7.20;100.00;98957.87;5238556;34;33533;-85
2022/11/17 06:18:24;;;;;;;30.62;14.77;;;;;;;7.20;100.00;98947.16;5237568;34;35024;-85
2022/11/17 06:21:26;;;;;;;27.13;13.95;;;;;;;7.22;100.00;98951.28;5225522;34;32569;-85
2022/11/17 06:24:49;;;;;;;28.00;13.45;;;;;;;7.23;100.00;98944.94;5236802;34;33646;-85
2022/11/17 06:27:53;;;;;;;25.75;13.30;;;;;;;7.13;100.00;98946.25;5236214;34;33939;-85
2022/11/17 06:30:58;;;;;;;26.27;13.80;;;;;;;7.14;100.00;98947.94;5237277;34;33924;-86
2022/11/17 06:34:01;;;;;;;25.88;13.38;;;;;;;7.25;100.00;98956.28;5223996;34;32103;-86
2022/11/17 06:37:04;;;;;;;23.55;11.98;;;;;;;7.36;100.00;98946.88;5236496;34;33559;-86
2022/11/17 06:40:08;;;;;;;29.33;14.10;;;;;;;7.46;100.00;98943.91;5236611;34;34323;-85
2022/11/17 06:43:11;;;;;;;25.90;13.05;;;;;;;7.50;100.00;98943.31;5214001;34;32315;-86
2022/11/17 06:46:14;;;;;;;24.65;12.80;;;;;;;7.46;100.00;98949.25;5210709;34;34022;-86
2022/11/17 06:49:17;;;;;;;26.10;13.10;;;;;;;7.28;100.00;98949.69;5232330;34;33541;-86
2022/11/17 06:52:20;;;;;;;27.40;13.20;;;;;;;7.23;100.00;98949.44;5236862;34;33890;-85
2022/11/17 06:55:23;;;;;;;25.23;13.02;;;;;;;7.21;100.00;98959.50;5237163;34;34318;-85
2022/11/17 06:58:27;;;;;;;28.17;13.98;;;;;;;7.26;100.00;98959.78;5223316;34;32548;-86
2022/11/17 07:01:30;;;;;;;23.67;12.95;;;;;;;7.25;100.00;98967.00;5228882;34;273524;-85
2022/11/17 07:04:33;;;;;;;27.65;13.62;;;;;;;7.29;100.00;98964.75;5236811;34;34210;-89
2022/11/17 07:07:36;;;;;;;24.80;12.98;;;;;;;7.69;100.00;98968.59;5236840;34;34096;-90
2022/11/17 07:10:38;;;;;;;25.25;13.85;;;;;;;8.32;100.00;98960.56;5237194;34;34494;-90
2022/11/17 07:13:48;;;;;;;27.73;12.60;;;;;;;8.63;100.00;98964.66;5224857;34;32092;-86
2022/11/17 07:16:50;;;;;;;21.85;12.52;;;;;;;8.72;100.00;98968.84;5241674;33;33960;-86
2022/11/17 07:19:54;;;;;;;27.83;13.60;;;;;;;8.58;100.00;98965.25;5241390;33;34305;-86
2022/11/17 07:22:58;;;;;;;22.87;11.65;;;;;;;8.54;100.00;98957.78;5223814;34;32429;-86
2022/11/17 07:26:01;;;;;;;22.37;11.65;;;;;;;8.71;100.00;98958.28;5238412;34;34345;-85
2022/11/17 07:29:04;;;;;;;23.85;11.30;;;;;;;8.78;100.00;98962.66;5225518;34;32364;-85
2022/11/17 07:32:10;;;;;;;19.73;10.95;;;;;;;8.73;100.00;98962.44;5225901;34;32913;-87
2022/11/17 07:35:12;;;;;;;22.20;11.75;;;;;;;8.67;100.00;98963.22;5237775;34;34744;-86
2022/11/17 07:38:15;;;;;;;22.13;11.48;;;;;;;8.66;100.00;98960.75;5236057;33;34185;-84
2022/11/17 07:41:18;;;;;;;19.55;10.60;;;;;;;8.70;100.00;98949.41;5241800;33;33752;-85
2022/11/17 07:44:21;;;;;;;22.17;11.63;;;;;;;8.53;100.00;98953.47;5242170;33;34713;-86
2022/11/17 07:47:23;;;;;;;21.05;11.35;;;;;;;8.27;100.00;98962.19;5235092;34;33492;-86
2022/11/17 07:50:27;;;;;;;21.10;11.95;;;;;;;8.31;100.00;98963.44;5239869;34;34088;-86
2022/11/17 07:53:32;;;;;;;21.40;11.45;;;;;;;8.38;100.00;98959.78;5238932;33;33889;-86
2022/11/17 07:56:35;;;;;;;19.98;11.65;;;;;;;8.43;100.00;98971.81;5245225;33;33994;-85
2022/11/17 07:59:38;;;;;;;19.77;10.50;;;;;;;8.48;100.00;98963.97;5246482;33;34295;-85
2022/11/17 08:02:41;;;;;;;20.90;10.90;;;;;;;8.44;100.00;98968.06;5239449;34;31234;-86
2022/11/17 08:05:43;;;;;;;22.75;10.95;;;;;;;8.45;100.00;98959.00;5248630;33;35023;-85
2022/11/17 08:08:48;;;;;;;17.45;10.00;;;;;;;8.57;100.00;98960.94;5237714;34;33502;-86
2022/11/17 08:11:51;;;;;;;21.92;10.55;;;;;;;8.57;100.00;98973.50;5236765;33;34045;-85
2022/11/17 08:14:54;;;;;;;21.48;10.70;;;;;;;8.73;100.00;98969.66;5224397;33;33185;-86
2022/11/17 08:17:59;;;;;;;20.15;10.60;;;;;;;8.81;100.00;98959.56;5230824;33;35306;-86
2022/11/17 08:21:07;;;;;;;19.92;10.43;;;;;;;8.82;100.00;98971.94;5238419;34;33458;-86
2022/11/17 08:24:11;;;;;;;18.55;9.65;;;;;;;8.93;100.00;98985.84;5238081;34;34829;-86
2022/11/17 08:27:13;;;;;;;20.05;10.63;;;;;;;8.92;100.00;98987.69;5238137;34;34454;-86
2022/11/17 08:30:18;;;;;;;19.77;9.88;;;;;;;8.94;100.00;98987.47;5238193;34;34210;-86
2022/11/17 08:33:22;;;;;;;20.90;11.05;;;;;;;9.05;100.00;98992.28;5226501;34;32863;-86
2022/11/17 08:36:24;;;;;;;18.48;9.93;;;;;;;9.19;100.00;98993.97;5253324;34;34359;-86
2022/11/17 08:39:27;;;;;;;18.08;10.88;;;;;;;9.39;100.00;98993.16;5253502;34;35307;-84
2022/11/17 08:42:30;;;;;;;18.90;9.40;;;;;;;9.39;100.00;98995.84;5253958;33;34653;-85
2022/11/17 08:45:33;;;;;;;19.48;9.52;;;;;;;9.53;100.00;98997.53;5245590;33;35401;-86
2022/11/17 08:48:35;;;;;;;18.58;9.63;;;;;;;9.75;100.00;98999.00;5224558;34;32702;-86
2022/11/17 08:51:39;;;;;;;16.17;8.85;;;;;;;10.06;100.00;98991.31;5237314;34;33895;-85
2022/11/17 08:54:42;;;;;;;13.85;7.72;;;;;;;10.23;100.00;98998.75;5225366;34;32408;-85
2022/11/17 08:57:44;;;;;;;14.23;7.15;;;;;;;10.31;100.00;99013.88;5225199;34;32669;-86
2022/11/17 09:00:47;;;;;;;19.33;8.70;;;;;;;10.09;100.00;99015.94;5238982;34;33925;-84
2022/11/17 09:03:50;;;;;;;15.52;8.00;;;;;;;9.90;100.00;99027.53;5238012;34;33976;-85
2022/11/17 09:06:53;;;;;;;15.73;7.47;;;;;;;9.67;100.00;99012.63;5234361;33;34060;-86
2022/11/17 09:09:56;;;;;;;17.85;7.78;;;;;;;9.73;100.00;99019.84;5208601;34;33275;-86
2022/11/17 09:12:58;;;;;;;12.55;7.37;;;;;;;9.99;100.00;99026.28;5240686;33;33624;-86
2022/11/17 09:16:10;;;;;;;11.32;6.72;;;;;;;10.25;100.00;99027.31;5240327;33;35333;-88
2022/11/17 09:19:14;;;;;;;11.40;6.65;;;;;;;10.26;100.00;99027.09;5238144;34;33822;-90
2022/11/17 09:22:18;;;;;;;14.32;7.45;;;;;;;10.54;99.02;99039.50;5238717;34;33843;-87
2022/11/17 09:25:21;;;;;;;13.35;6.45;;;;;;;10.60;99.89;99031.41;5238395;34;34322;-86
2022/11/17 09:28:24;;;;;;;13.13;6.30;;;;;;;10.57;97.54;99041.78;5223987;34;32850;-87
2022/11/17 09:31:29;;;;;;;13.73;6.32;;;;;;;10.43;98.21;99044.47;5236635;33;34730;-87
2022/11/17 09:34:31;;;;;;;10.63;6.40;;;;;;;10.30;97.93;99039.13;5231075;34;34003;-87
2022/11/17 09:37:34;;;;;;;13.45;7.37;;;;;;;10.06;100.00;99043.25;5223153;34;33032;-87
2022/11/17 09:40:40;;;;;;;12.23;7.50;;;;;;;10.34;100.00;99044.91;5237331;34;35330;-87
2022/11/17 09:43:49;;;;;;;11.75;6.32;;;;;;;10.37;98.73;99033.72;5236434;34;34160;-87
2022/11/17 09:47:05;;;;;;;11.18;6.50;;;;;;;10.53;97.87;99040.53;5238604;33;33518;-87
2022/11/17 09:50:28;;;;;;;12.43;5.70;;;;;;;10.64;97.31;99021.84;5226825;34;32700;-87
2022/11/17 09:53:56;;;;;;;12.63;6.55;;;;;;;10.46;97.83;99021.72;5239247;33;34842;-87
2022/11/17 09:57:00;;;;;;;12.50;6.62;;;;;;;10.54;99.90;99010.72;5257222;33;34177;-86
2022/11/17 10:00:10;;;;;;;9.85;6.00;;;;;;;10.59;96.92;99008.22;5231473;34;32747;-86
2022/11/17 10:03:18;;;;;;;9.50;5.50;;;;;;;10.77;96.00;99009.41;5229401;34;34569;-86
2022/11/17 10:06:24;;;;;;;10.27;5.97;;;;;;;10.82;94.10;98998.81;5243936;34;33855;-85
2022/11/17 10:09:35;;;;;;;10.43;5.45;;;;;;;10.96;92.18;99003.09;5242172;34;32957;-85
2022/11/17 10:12:46;;;;;;;9.27;5.75;;;;;;;11.04;93.15;98999.34;5224077;33;32295;-85
2022/11/17 10:15:55;;;;;;;9.43;5.28;;;;;;;11.00;91.90;99003.53;5226936;33;32046;-88
2022/11/17 10:19:20;;;;;;;10.23;5.62;;;;;;;10.99;93.21;99005.38;5223854;34;32016;-87
2022/11/17 10:22:35;;;;;;;8.25;5.10;;;;;;;10.96;93.13;99007.66;5236756;34;33820;-84
2022/11/17 10:25:44;;;;;;;9.07;5.65;;;;;;;11.13;92.89;99006.12;5236481;34;34686;-84
2022/11/17 10:29:03;;;;;;;12.30;5.85;;;;;;;11.24;92.88;99004.66;5232870;34;34854;-83
2022/11/17 10:32:13;;;;;;;10.93;6.22;;;;;;;11.42;92.86;99001.22;5235203;34;34106;-84
2022/11/17 10:35:23;;;;;;;11.40;6.05;;;;;;;11.58;92.12;99003.37;5221116;34;32290;-84
2022/11/17 10:38:28;;;;;;;11.80;6.45;;;;;;;11.61;91.74;99004.81;5230901;33;33813;-84
2022/11/17 10:41:41;;;;;;;10.27;5.93;;;;;;;11.25;91.85;99006.28;5217969;34;33070;-84
2022/11/17 10:44:50;;;;;;;11.60;7.00;;;;;;;11.23;94.03;99005.66;5222473;34;33481;-84
2022/11/17 10:48:07;;;;;;;11.50;6.90;;;;;;;11.22;93.79;99012.09;5235032;34;34140;-84
2022/11/17 10:51:22;;;;;;;11.32;6.75;;;;;;;11.25;92.98;99009.81;5222128;34;32549;-84
2022/11/17 10:54:25;;;;;;;12.73;6.87;;;;;;;11.32;92.82;99009.78;5232410;33;34037;-84
2022/11/17 10:57:28;;;;;;;11.05;6.50;;;;;;;11.50;91.22;99014.44;5237590;33;34116;-84
2022/11/17 11:00:34;;;;;;;14.27;6.37;;;;;;;11.54;90.80;99019.16;5237041;34;35362;-84
2022/11/17 11:03:48;;;;;;;13.10;6.47;;;;;;;11.67;90.95;99020.97;5236197;34;33754;-84
2022/11/17 11:07:12;;;;;;;11.60;7.37;;;;;;;11.49;91.59;99018.97;5236479;34;34114;-85
2022/11/17 11:10:25;;;;;;;10.55;6.50;;;;;;;11.25;91.47;99017.06;5235284;33;33548;-84
2022/11/17 11:13:32;;;;;;;13.18;7.37;;;;;;;11.27;91.85;99020.38;5234366;34;34657;-84
2022/11/17 11:16:35;;;;;;;11.70;6.32;;;;;;;11.18;91.88;99018.97;5243909;34;34302;-84
2022/11/17 11:19:40;;;;;;;11.23;6.50;;;;;;;11.40;91.39;99011.38;5230682;34;34994;-84
2022/11/17 11:23:01;;;;;;;11.80;7.18;;;;;;;11.52;90.75;99018.56;5234710;34;33332;-84
2022/11/17 11:26:04;;;;;;;14.70;7.07;;;;;;;11.58;89.91;99011.47;5230738;34;34163;-84
2022/11/17 11:29:18;;;;;;;13.73;6.70;;;;;;;11.99;88.20;99011.00;5227782;34;34447;-86
2022/11/17 11:32:40;;;;;;;12.43;6.68;;;;;;;12.07;87.08;99014.44;5214301;34;32465;-85
2022/11/17 11:35:54;;;;;;;11.82;6.65;;;;;;;11.98;86.36;99019.28;5238261;33;34110;-85
2022/11/17 11:39:35;;;;;;;13.32;6.68;;;;;;;11.93;86.75;99019.94;5219873;34;32124;-85
2022/11/17 11:42:47;;;;;;;11.88;6.93;;;;;;;11.77;89.71;99023.16;5220715;34;32735;-90
2022/11/17 11:46:07;;;;;;;11.12;6.60;;;;;;;11.71;88.58;99026.72;5236153;34;33895;-85
2022/11/17 11:49:35;;;;;;;12.98;7.25;;;;;;;11.63;87.55;99029.69;5223952;33;33762;-85
2022/11/17 11:52:46;;;;;;;11.60;6.68;;;;;;;11.64;88.42;99016.00;5229928;34;33851;-85
2022/11/17 11:56:03;;;;;;;10.50;6.50;;;;;;;11.51;88.99;99016.91;5224200;33;33065;-85
2022/11/17 11:59:13;;;;;;;11.30;6.85;;;;;;;11.54;90.67;99011.06;5222910;34;32490;-85
2022/11/17 12:02:21;;;;;;;9.75;6.30;;;;;;;11.58;89.39;99016.84;5230261;33;33751;-86
2022/11/17 12:05:50;;;;;;;10.10;6.07;;;;;;;11.65;87.49;99011.44;5221067;34;33329;-85
2022/11/17 12:09:08;;;;;;;10.98;6.53;;;;;;;11.63;86.83;99013.50;5217705;34;32603;-85
2022/11/17 12:12:27;;;;;;;10.55;6.43;;;;;;;11.70;86.76;99017.81;5224832;33;32478;-85
2022/11/17 12:15:34;;;;;;;12.17;6.03;;;;;;;11.61;87.17;99024.50;5229238;33;33079;-90
2022/11/17 12:18:37;;;;;;;9.90;6.60;;;;;;;11.50;88.89;99025.22;5229659;33;33049;-86
2022/11/17 12:21:40;;;;;;;10.20;6.53;;;;;;;11.80;86.75;99023.53;5225349;33;34476;-86
2022/11/17 12:24:44;;;;;;;10.98;7.07;;;;;;;12.01;85.70;99024.25;5214320;34;33056;-86
2022/11/17 12:27:48;;;;;;;10.27;6.30;;;;;;;12.46;85.43;99016.78;5209363;34;32676;-86
2022/11/17 12:30:54;;;;;;;11.48;6.53;;;;;;;12.69;82.73;99013.41;5230074;33;35021;-87
2022/11/17 12:33:59;;;;;;;9.77;6.28;;;;;;;12.33;84.25;99018.78;5227273;33;34484;-87
2022/11/17 12:37:25;;;;;;;12.13;6.82;;;;;;;12.38;83.81;99025.16;5231788;33;34521;-87
2022/11/17 12:40:50;;;;;;;10.93;6.40;;;;;;;12.01;84.93;99032.34;5229567;33;32817;-87
2022/11/17 12:44:31;;;;;;;13.45;6.78;;;;;;;12.30;84.87;99032.72;5217486;34;32611;-86
2022/11/17 12:47:38;;;;;;;11.73;7.15;;;;;;;12.87;81.58;99031.47;5228667;34;32515;-86
2022/11/17 12:50:55;;;;;;;15.20;7.12;;;;;;;13.22;78.85;99027.28;5218684;34;32804;-86
2022/11/17 12:54:19;;;;;;;12.10;6.80;;;;;;;13.45;77.35;99022.00;5231033;34;33479;-86
2022/11/17 12:57:27;;;;;;;11.35;7.20;;;;;;;13.03;79.04;99030.03;5211537;33;32589;-90
2022/11/17 13:00:46;;;;;;;10.57;6.78;;;;;;;12.84;79.38;99022.97;5226487;34;33757;-86
2022/11/17 13:04:13;;;;;;;11.32;7.53;;;;;;;12.55;84.88;99024.56;5214959;33;32864;-86
2022/11/17 13:07:25;;;;;;;12.07;7.05;;;;;;;12.45;85.22;99033.19;5235422;34;34493;-85
2022/11/17 13:10:30;;;;;;;11.93;7.15;;;;;;;12.29;83.72;99026.50;5231700;33;34626;-85
2022/11/17 13:13:33;;;;;;;14.07;7.62;;;;;;;12.10;87.54;99025.59;5233133;34;33858;-85
2022/11/17 13:16:49;;;;;;;11.40;7.00;;;;;;;11.86;89.52;99034.53;5246923;34;34498;-85
2022/11/17 13:20:14;;;;;;;12.18;7.45;;;;;;;11.78;87.69;99031.00;5238168;34;34271;-85
2022/11/17 13:23:26;;;;;;;11.73;6.53;;;;;;;11.74;88.00;99027.13;5238755;34;34014;-85
2022/11/17 13:26:36;;;;;;;12.23;6.97;;;;;;;11.67;88.20;99042.53;5240029;34;33904;-85
2022/11/17 13:29:39;;;;;;;11.27;6.72;;;;;;;11.47;89.62;99045.34;5218713;34;34140;-85
2022/11/17 13:32:42;;;;;;;12.70;7.12;;;;;;;11.23;91.62;99046.06;5223376;34;32283;-85
2022/11/17 13:35:45;;;;;;;10.70;7.07;;;;;;;11.31;89.73;99052.03;5246971;33;32255;-85
2022/11/17 13:38:53;;;;;;;10.65;6.75;;;;;;;11.16;91.12;99050.69;5255335;33;34032;-85
2022/11/17 13:41:59;;;;;;;16.25;7.05;;;;;;;11.09;91.15;99065.00;5254224;33;33008;-85
2022/11/17 13:45:04;;;;;;;14.27;7.47;;;;;;;11.07;92.46;99059.00;5238804;33;33529;-85
2022/11/17 13:48:33;;;;;;;12.65;7.57;;;;;;;10.77;92.93;99053.31;5232476;34;32634;-89
2022/11/17 13:51:45;;;;;;;10.68;6.62;;;;;;;10.52;94.54;99066.59;5240485;34;33833;-85
2022/11/17 13:54:48;;;;;;;12.02;6.82;;;;;;;10.34;97.62;99066.44;5210564;34;32401;-85
2022/11/17 13:58:17;;;;;;;13.85;7.35;;;;;;;10.44;96.32;99064.13;5207632;34;31954;-85
2022/11/17 14:01:28;;;;;;;12.40;6.75;;;;;;;10.20;98.56;99063.72;5210721;34;33155;-85
2022/11/17 14:04:31;;;;;;;13.40;7.57;;;;;;;9.99;100.00;99051.31;5224024;33;34081;-85
2022/11/17 14:07:36;;;;;;;13.75;7.82;;;;;;;10.12;99.72;99057.72;5224463;34;32436;-85
2022/11/17 14:10:39;;;;;;;13.43;7.60;;;;;;;10.17;99.82;99061.44;5237280;34;34055;-85
2022/11/17 14:13:49;;;;;;;13.55;7.78;;;;;;;10.03;100.00;99062.47;5237236;34;34280;-86
2022/11/17 14:16:52;;;;;;;13.82;7.55;;;;;;;9.94;100.00;99061.03;5224283;34;32715;-85
2022/11/17 14:19:54;;;;;;;12.90;6.70;;;;;;;9.87;100.00;99062.91;5236720;34;34372;-86
2022/11/17 14:23:14;;;;;;;13.38;7.40;;;;;;;9.89;100.00;99050.91;5229850;34;32571;-86
2022/11/17 14:26:23;;;;;;;10.40;6.50;;;;;;;9.86;100.00;99051.31;5225775;34;32287;-86
2022/11/17 14:29:27;;;;;;;12.82;7.28;;;;;;;9.85;100.00;99044.25;5225344;34;33513;-88
2022/11/17 14:32:31;;;;;;;14.52;7.50;;;;;;;9.87;100.00;99044.06;5225258;34;33731;-86
2022/11/17 14:35:34;;;;;;;14.02;7.47;;;;;;;9.87;100.00;99047.59;5237203;34;34946;-86
2022/11/17 14:38:36;;;;;;;16.37;8.07;;;;;;;9.91;100.00;99048.81;5236708;34;35013;-86
2022/11/17 14:41:40;;;;;;;12.85;7.32;;;;;;;9.84;100.00;99049.88;5236591;34;33921;-86
2022/11/17 14:44:43;;;;;;;13.38;7.90;;;;;;;9.81;100.00;99051.09;5236950;34;34233;-87
2022/11/17 14:47:47;;;;;;;12.30;7.15;;;;;;;9.84;100.00;99060.62;5238937;34;33646;-86
2022/11/17 14:50:58;;;;;;;14.80;8.20;;;;;;;9.81;100.00;99069.09;5236698;34;34174;-90
2022/11/17 14:54:01;;;;;;;12.93;7.68;;;;;;;9.77;100.00;99063.31;5232741;34;34636;-91
2022/11/17 14:57:04;;;;;;;13.13;7.22;;;;;;;9.73;100.00;99062.03;5224300;34;32096;-86
2022/11/17 15:00:08;;;;;;;13.90;7.07;;;;;;;9.62;100.00;99057.25;5223163;34;32598;-86
2022/11/17 15:03:15;;;;;;;12.90;7.20;;;;;;;9.50;100.00;99063.22;5224526;34;32864;-87
2022/11/17 15:06:20;;;;;;;12.90;7.22;;;;;;;9.47;100.00;99063.63;5240028;34;34263;-86
2022/11/17 15:09:23;;;;;;;12.48;7.75;;;;;;;9.43;100.00;99056.22;5237100;34;34008;-86
2022/11/17 15:12:27;;;;;;;16.48;8.70;;;;;;;9.38;100.00;99051.44;5239030;34;34421;-87
2022/11/17 15:15:30;;;;;;;13.00;8.02;;;;;;;9.31;100.00;99042.53;5235867;34;32480;-87
2022/11/17 15:18:33;;;;;;;14.35;9.20;;;;;;;9.23;100.00;99054.28;5225817;34;33076;-88
2022/11/17 15:21:35;;;;;;;17.62;9.18;;;;;;;9.22;100.00;99060.69;5236437;34;32589;-86
2022/11/17 15:24:38;;;;;;;18.15;8.38;;;;;;;9.22;100.00;99060.69;5242473;34;34850;-87
2022/11/17 15:27:41;;;;;;;17.58;8.13;;;;;;;9.24;100.00;99066.69;5234608;34;33309;-86
2022/11/17 15:30:44;;;;;;;19.80;9.20;;;;;;;9.23;100.00;99058.81;5237881;34;34447;-88
2022/11/17 15:33:47;;;;;;;18.73;9.38;;;;;;;9.22;100.00;99063.37;5234822;34;33734;-86
2022/11/17 15:36:50;;;;;;;17.35;9.68;;;;;;;9.23;100.00;99064.19;5234745;34;33695;-87
2022/11/17 15:39:53;;;;;;;18.58;8.73;;;;;;;9.19;100.00;99053.03;5235339;34;34468;-87
2022/11/17 15:42:56;;;;;;;20.52;10.68;;;;;;;9.13;100.00;99048.47;5237188;34;34339;-87
2022/11/17 15:46:09;;;;;;;19.62;10.48;;;;;;;9.09;100.00;99055.25;5228582;34;32065;-87
2022/11/17 15:49:12;;;;;;;19.67;10.77;;;;;;;9.03;100.00;99053.38;5239907;34;33967;-87
2022/11/17 15:52:15;;;;;;;21.30;11.10;;;;;;;8.95;100.00;99053.53;5229588;34;32585;-87
2022/11/17 15:55:34;;;;;;;23.50;11.35;;;;;;;8.91;100.00;99055.81;5242661;34;33945;-85
2022/11/17 15:58:39;;;;;;;22.35;11.05;;;;;;;8.89;100.00;99049.81;5238591;34;34921;-86
2022/11/17 16:01:43;;;;;;;18.50;10.18;;;;;;;8.92;100.00;99048.56;5237295;34;34077;-85
2022/11/17 16:04:45;;;;;;;20.73;9.93;;;;;;;8.92;100.00;99041.37;5223936;34;32472;-86
2022/11/17 16:07:48;;;;;;;17.58;9.77;;;;;;;8.99;100.00;99046.75;5224451;34;32397;-86
2022/11/17 16:10:51;;;;;;;19.23;9.65;;;;;;;8.99;100.00;99042.22;5236499;34;34641;-86
2022/11/17 16:13:54;;;;;;;20.05;9.85;;;;;;;8.96;100.00;99028.38;5224183;34;32147;-85
2022/11/17 16:16:57;;;;;;;19.00;9.98;;;;;;;8.96;100.00;99028.38;5224578;34;33189;-86
2022/11/17 16:20:00;;;;;;;19.50;9.90;;;;;;;8.93;100.00;99029.59;5237783;34;33738;-86
2022/11/17 16:23:02;;;;;;;19.15;10.75;;;;;;;8.93;100.00;99036.84;5224556;34;32398;-86
2022/11/17 16:26:05;;;;;;;18.52;10.23;;;;;;;8.89;100.00;99044.44;5224525;34;33866;-86
2022/11/17 16:29:08;;;;;;;17.20;9.98;;;;;;;8.95;100.00;99027.56;5223511;34;33632;-86
2022/11/17 16:32:11;;;;;;;18.00;10.05;;;;;;;8.93;100.00;99021.56;5224354;34;33083;-86
2022/11/17 16:35:13;;;;;;;18.27;9.07;;;;;;;8.95;100.00;99024.00;5237104;34;34252;-87
2022/11/17 16:38:16;;;;;;;20.62;9.63;;;;;;;8.94;100.00;99030.44;5224548;34;33180;-87
2022/11/17 16:41:21;;;;;;;21.60;9.50;;;;;;;8.95;100.00;99042.81;5237379;34;34608;-86
2022/11/17 16:44:23;;;;;;;19.80;9.68;;;;;;;8.99;100.00;99068.25;5223353;34;32412;-86
2022/11/17 16:47:27;;;;;;;18.45;9.43;;;;;;;9.18;100.00;99069.34;5232415;34;33929;-91
2022/11/17 16:50:34;;;;;;;19.17;10.00;;;;;;;9.17;100.00;99073.88;5224084;34;33196;-91
2022/11/17 16:53:37;;;;;;;20.45;9.85;;;;;;;9.16;100.00;99085.66;5225049;34;33235;-87
